sensor_id;sensor_type;location;lat;lon;timestamp;P1;durP1;ratioP1;P2;durP2;ratioP2
60076;SDS011;45950;45.208;20.374;2023-01-05T00:01:54;120.63;;;39.83;;
60076;SDS011;45950;45.208;20.374;2023-01-05T00:04:30;135.48;;;39.35;;
60076;SDS011;45950;45.208;20.374;2023-01-05T00:06:57;88.20;;;36.40;;
60076;SDS011;45950;45.208;20.374;2023-01-05T00:09:24;119.18;;;39.38;;
60076;SDS011;45950;45.208;20.374;2023-01-05T00:11:52;132.85;;;40.25;;
60076;SDS011;45950;45.208;20.374;2023-01-05T00:14:36;115.95;;;45.35;;
60076;SDS011;45950;45.208;20.374;2023-01-05T00:17:21;141.23;;;48.58;;
60076;SDS011;45950;45.208;20.374;2023-01-05T00:20:09;107.45;;;42.53;;
60076;SDS011;45950;45.208;20.374;2023-01-05T00:22:56;90.97;;;37.67;;
60076;SDS011;45950;45.208;20.374;2023-01-05T00:25:23;77.95;;;34.38;;
60076;SDS011;45950;45.208;20.374;2023-01-05T00:27:51;93.88;;;36.70;;
60076;SDS011;45950;45.208;20.374;2023-01-05T00:30:19;80.97;;;31.00;;
60076;SDS011;45950;45.208;20.374;2023-01-05T00:32:47;87.53;;;33.28;;
60076;SDS011;45950;45.208;20.374;2023-01-05T00:35:14;102.60;;;37.13;;
60076;SDS011;45950;45.208;20.374;2023-01-05T00:37:41;107.00;;;32.20;;
60076;SDS011;45950;45.208;20.374;2023-01-05T00:40:10;91.07;;;30.73;;
60076;SDS011;45950;45.208;20.374;2023-01-05T00:42:37;66.65;;;27.55;;
60076;SDS011;45950;45.208;20.374;2023-01-05T00:45:06;91.03;;;31.17;;
60076;SDS011;45950;45.208;20.374;2023-01-05T00:47:34;70.75;;;26.33;;
60076;SDS011;45950;45.208;20.374;2023-01-05T00:50:01;78.40;;;26.73;;
60076;SDS011;45950;45.208;20.374;2023-01-05T00:52:28;128.10;;;34.40;;
60076;SDS011;45950;45.208;20.374;2023-01-05T00:54:55;104.50;;;30.63;;
60076;SDS011;45950;45.208;20.374;2023-01-05T00:57:22;80.85;;;28.95;;
60076;SDS011;45950;45.208;20.374;2023-01-05T00:59:49;71.85;;;30.67;;
60076;SDS011;45950;45.208;20.374;2023-01-05T01:02:18;103.15;;;34.45;;
60076;SDS011;45950;45.208;20.374;2023-01-05T01:04:45;73.18;;;29.02;;
60076;SDS011;45950;45.208;20.374;2023-01-05T01:07:13;91.95;;;31.13;;
60076;SDS011;45950;45.208;20.374;2023-01-05T01:09:40;125.68;;;34.20;;
60076;SDS011;45950;45.208;20.374;2023-01-05T01:12:06;105.18;;;32.58;;
60076;SDS011;45950;45.208;20.374;2023-01-05T01:14:33;87.05;;;28.65;;
60076;SDS011;45950;45.208;20.374;2023-01-05T01:17:00;107.40;;;30.45;;
60076;SDS011;45950;45.208;20.374;2023-01-05T01:19:29;113.43;;;32.47;;
60076;SDS011;45950;45.208;20.374;2023-01-05T01:21:56;106.60;;;29.50;;
60076;SDS011;45950;45.208;20.374;2023-01-05T01:24:23;77.40;;;26.33;;
60076;SDS011;45950;45.208;20.374;2023-01-05T01:26:51;90.53;;;28.23;;
60076;SDS011;45950;45.208;20.374;2023-01-05T01:29:21;84.03;;;29.70;;
60076;SDS011;45950;45.208;20.374;2023-01-05T01:31:48;131.35;;;35.53;;
60076;SDS011;45950;45.208;20.374;2023-01-05T01:34:15;99.20;;;30.70;;
60076;SDS011;45950;45.208;20.374;2023-01-05T01:36:45;111.63;;;33.13;;
60076;SDS011;45950;45.208;20.374;2023-01-05T01:39:12;105.82;;;32.05;;
60076;SDS011;45950;45.208;20.374;2023-01-05T01:41:39;143.40;;;32.42;;
60076;SDS011;45950;45.208;20.374;2023-01-05T01:46:47;102.20;;;33.33;;
60076;SDS011;45950;45.208;20.374;2023-01-05T01:49:14;68.07;;;27.08;;
60076;SDS011;45950;45.208;20.374;2023-01-05T01:51:46;105.18;;;29.33;;
60076;SDS011;45950;45.208;20.374;2023-01-05T01:54:14;62.95;;;25.48;;
60076;SDS011;45950;45.208;20.374;2023-01-05T01:56:44;105.05;;;30.20;;
60076;SDS011;45950;45.208;20.374;2023-01-05T01:59:12;129.52;;;30.80;;
60076;SDS011;45950;45.208;20.374;2023-01-05T02:01:40;122.90;;;32.22;;
60076;SDS011;45950;45.208;20.374;2023-01-05T02:07:14;113.50;;;29.95;;
60076;SDS011;45950;45.208;20.374;2023-01-05T02:09:41;68.22;;;25.70;;
60076;SDS011;45950;45.208;20.374;2023-01-05T02:12:11;84.20;;;25.88;;
60076;SDS011;45950;45.208;20.374;2023-01-05T02:14:44;98.90;;;26.40;;
60076;SDS011;45950;45.208;20.374;2023-01-05T02:17:14;105.43;;;28.10;;
60076;SDS011;45950;45.208;20.374;2023-01-05T02:19:59;93.43;;;28.48;;
60076;SDS011;45950;45.208;20.374;2023-01-05T02:25:31;103.88;;;25.70;;
60076;SDS011;45950;45.208;20.374;2023-01-05T02:28:07;119.70;;;30.13;;
60076;SDS011;45950;45.208;20.374;2023-01-05T02:36:33;93.80;;;25.95;;
60076;SDS011;45950;45.208;20.374;2023-01-05T02:39:04;55.35;;;22.65;;
60076;SDS011;45950;45.208;20.374;2023-01-05T02:41:35;101.13;;;26.50;;
60076;SDS011;45950;45.208;20.374;2023-01-05T02:47:36;116.22;;;27.52;;
60076;SDS011;45950;45.208;20.374;2023-01-05T02:50:05;123.07;;;33.70;;
60076;SDS011;45950;45.208;20.374;2023-01-05T02:52:36;105.88;;;31.05;;
60076;SDS011;45950;45.208;20.374;2023-01-05T02:57:54;151.38;;;37.75;;
60076;SDS011;45950;45.208;20.374;2023-01-05T03:00:24;101.18;;;34.28;;
60076;SDS011;45950;45.208;20.374;2023-01-05T03:02:51;78.43;;;28.15;;
60076;SDS011;45950;45.208;20.374;2023-01-05T03:05:20;96.43;;;32.83;;
60076;SDS011;45950;45.208;20.374;2023-01-05T03:07:52;88.53;;;28.05;;
60076;SDS011;45950;45.208;20.374;2023-01-05T03:10:30;107.43;;;28.65;;
60076;SDS011;45950;45.208;20.374;2023-01-05T03:13:15;68.45;;;30.10;;
60076;SDS011;45950;45.208;20.374;2023-01-05T03:16:00;108.53;;;28.65;;
60076;SDS011;45950;45.208;20.374;2023-01-05T03:18:40;87.00;;;28.95;;
60076;SDS011;45950;45.208;20.374;2023-01-05T03:21:21;152.27;;;35.08;;
60076;SDS011;45950;45.208;20.374;2023-01-05T03:23:51;190.15;;;33.45;;
60076;SDS011;45950;45.208;20.374;2023-01-05T03:29:39;99.78;;;30.08;;
60076;SDS011;45950;45.208;20.374;2023-01-05T03:32:24;103.05;;;27.90;;
60076;SDS011;45950;45.208;20.374;2023-01-05T03:35:11;110.03;;;30.95;;
60076;SDS011;45950;45.208;20.374;2023-01-05T03:41:01;172.23;;;36.20;;
60076;SDS011;45950;45.208;20.374;2023-01-05T03:43:32;121.60;;;30.83;;
60076;SDS011;45950;45.208;20.374;2023-01-05T03:46:00;95.82;;;31.77;;
60076;SDS011;45950;45.208;20.374;2023-01-05T03:48:27;141.45;;;36.17;;
60076;SDS011;45950;45.208;20.374;2023-01-05T03:54:00;146.70;;;35.05;;
60076;SDS011;45950;45.208;20.374;2023-01-05T03:56:29;112.45;;;29.92;;
60076;SDS011;45950;45.208;20.374;2023-01-05T03:58:56;112.38;;;31.02;;
60076;SDS011;45950;45.208;20.374;2023-01-05T04:04:26;153.13;;;38.38;;
60076;SDS011;45950;45.208;20.374;2023-01-05T04:06:54;129.55;;;37.00;;
60076;SDS011;45950;45.208;20.374;2023-01-05T04:09:23;133.75;;;34.00;;
60076;SDS011;45950;45.208;20.374;2023-01-05T04:14:55;153.93;;;37.63;;
60076;SDS011;45950;45.208;20.374;2023-01-05T04:17:23;168.25;;;36.35;;
60076;SDS011;45950;45.208;20.374;2023-01-05T04:19:50;145.25;;;35.97;;
60076;SDS011;45950;45.208;20.374;2023-01-05T04:25:20;132.40;;;34.80;;
60076;SDS011;45950;45.208;20.374;2023-01-05T04:27:47;153.23;;;36.35;;
60076;SDS011;45950;45.208;20.374;2023-01-05T04:30:18;126.50;;;35.58;;
60076;SDS011;45950;45.208;20.374;2023-01-05T04:32:45;159.35;;;36.53;;
60076;SDS011;45950;45.208;20.374;2023-01-05T04:35:13;201.80;;;38.20;;
60076;SDS011;45950;45.208;20.374;2023-01-05T04:37:43;159.20;;;36.13;;
60076;SDS011;45950;45.208;20.374;2023-01-05T04:40:10;135.88;;;35.80;;
60076;SDS011;45950;45.208;20.374;2023-01-05T04:42:37;192.82;;;41.35;;
60076;SDS011;45950;45.208;20.374;2023-01-05T04:45:05;158.88;;;37.22;;
60076;SDS011;45950;45.208;20.374;2023-01-05T04:47:34;218.02;;;41.35;;
60076;SDS011;45950;45.208;20.374;2023-01-05T04:50:01;156.75;;;37.42;;
60076;SDS011;45950;45.208;20.374;2023-01-05T04:52:29;188.85;;;40.80;;
60076;SDS011;45950;45.208;20.374;2023-01-05T04:54:56;177.80;;;38.95;;
60076;SDS011;45950;45.208;20.374;2023-01-05T04:57:25;142.18;;;36.70;;
60076;SDS011;45950;45.208;20.374;2023-01-05T04:59:53;160.85;;;37.05;;
60076;SDS011;45950;45.208;20.374;2023-01-05T05:02:25;137.95;;;35.83;;
60076;SDS011;45950;45.208;20.374;2023-01-05T05:04:54;103.22;;;31.83;;
60076;SDS011;45950;45.208;20.374;2023-01-05T05:07:21;192.82;;;51.30;;
60076;SDS011;45950;45.208;20.374;2023-01-05T05:12:51;152.43;;;35.90;;
60076;SDS011;45950;45.208;20.374;2023-01-05T05:15:19;66.15;;;27.27;;
60076;SDS011;45950;45.208;20.374;2023-01-05T05:17:47;112.15;;;34.13;;
60076;SDS011;45950;45.208;20.374;2023-01-05T05:20:18;129.80;;;32.10;;
60076;SDS011;45950;45.208;20.374;2023-01-05T05:22:48;131.10;;;33.40;;
60076;SDS011;45950;45.208;20.374;2023-01-05T05:25:15;137.77;;;32.92;;
60076;SDS011;45950;45.208;20.374;2023-01-05T05:27:43;98.78;;;36.00;;
60076;SDS011;45950;45.208;20.374;2023-01-05T05:30:10;68.45;;;29.95;;
60076;SDS011;45950;45.208;20.374;2023-01-05T05:32:39;119.47;;;32.13;;
60076;SDS011;45950;45.208;20.374;2023-01-05T05:35:06;87.30;;;30.98;;
60076;SDS011;45950;45.208;20.374;2023-01-05T05:37:35;89.18;;;29.95;;
60076;SDS011;45950;45.208;20.374;2023-01-05T05:40:05;112.82;;;30.27;;
60076;SDS011;45950;45.208;20.374;2023-01-05T05:42:32;100.70;;;27.13;;
60076;SDS011;45950;45.208;20.374;2023-01-05T05:45:00;61.78;;;25.23;;
60076;SDS011;45950;45.208;20.374;2023-01-05T05:47:28;72.68;;;26.70;;
60076;SDS011;45950;45.208;20.374;2023-01-05T05:49:56;110.35;;;28.73;;
60076;SDS011;45950;45.208;20.374;2023-01-05T05:52:24;78.43;;;27.90;;
60076;SDS011;45950;45.208;20.374;2023-01-05T05:54:52;65.88;;;26.40;;
60076;SDS011;45950;45.208;20.374;2023-01-05T06:00:15;77.20;;;27.75;;
60076;SDS011;45950;45.208;20.374;2023-01-05T06:02:44;91.22;;;28.52;;
60076;SDS011;45950;45.208;20.374;2023-01-05T06:05:11;49.92;;;24.77;;
60076;SDS011;45950;45.208;20.374;2023-01-05T06:07:41;93.18;;;31.42;;
60076;SDS011;45950;45.208;20.374;2023-01-05T06:10:11;86.07;;;28.77;;
60076;SDS011;45950;45.208;20.374;2023-01-05T06:12:38;62.35;;;25.77;;
60076;SDS011;45950;45.208;20.374;2023-01-05T06:15:05;56.80;;;25.30;;
60076;SDS011;45950;45.208;20.374;2023-01-05T06:17:33;92.88;;;28.65;;
60076;SDS011;45950;45.208;20.374;2023-01-05T06:20:00;55.28;;;22.27;;
60076;SDS011;45950;45.208;20.374;2023-01-05T06:22:27;67.57;;;26.08;;
60076;SDS011;45950;45.208;20.374;2023-01-05T06:24:54;61.60;;;25.45;;
60076;SDS011;45950;45.208;20.374;2023-01-05T06:27:23;64.80;;;27.33;;
60076;SDS011;45950;45.208;20.374;2023-01-05T06:29:50;52.53;;;26.80;;
60076;SDS011;45950;45.208;20.374;2023-01-05T06:32:21;51.10;;;27.38;;
60076;SDS011;45950;45.208;20.374;2023-01-05T06:34:48;61.05;;;28.90;;
60076;SDS011;45950;45.208;20.374;2023-01-05T06:37:15;57.90;;;30.27;;
60076;SDS011;45950;45.208;20.374;2023-01-05T06:39:44;69.28;;;31.05;;
60076;SDS011;45950;45.208;20.374;2023-01-05T06:42:11;68.15;;;31.92;;
60076;SDS011;45950;45.208;20.374;2023-01-05T06:44:44;59.03;;;29.98;;
60076;SDS011;45950;45.208;20.374;2023-01-05T06:47:12;75.47;;;32.28;;
60076;SDS011;45950;45.208;20.374;2023-01-05T06:49:39;74.40;;;34.13;;
60076;SDS011;45950;45.208;20.374;2023-01-05T06:52:06;63.45;;;31.45;;
60076;SDS011;45950;45.208;20.374;2023-01-05T06:54:35;51.08;;;26.90;;
60076;SDS011;45950;45.208;20.374;2023-01-05T06:57:02;56.15;;;28.83;;
60076;SDS011;45950;45.208;20.374;2023-01-05T06:59:31;46.85;;;25.67;;
60076;SDS011;45950;45.208;20.374;2023-01-05T07:01:59;61.40;;;29.77;;
60076;SDS011;45950;45.208;20.374;2023-01-05T07:04:27;53.55;;;27.65;;
60076;SDS011;45950;45.208;20.374;2023-01-05T07:06:54;52.22;;;27.50;;
60076;SDS011;45950;45.208;20.374;2023-01-05T07:09:21;54.47;;;27.77;;
60076;SDS011;45950;45.208;20.374;2023-01-05T07:11:48;44.60;;;25.08;;
60076;SDS011;45950;45.208;20.374;2023-01-05T07:14:16;56.10;;;29.20;;
60076;SDS011;45950;45.208;20.374;2023-01-05T07:16:46;60.92;;;32.03;;
60076;SDS011;45950;45.208;20.374;2023-01-05T07:19:15;48.28;;;25.08;;
60076;SDS011;45950;45.208;20.374;2023-01-05T07:21:43;62.17;;;32.08;;
60076;SDS011;45950;45.208;20.374;2023-01-05T07:24:13;62.28;;;34.67;;
60076;SDS011;45950;45.208;20.374;2023-01-05T07:29:46;66.03;;;33.97;;
60076;SDS011;45950;45.208;20.374;2023-01-05T07:32:13;69.38;;;34.75;;
60076;SDS011;45950;45.208;20.374;2023-01-05T07:34:41;62.28;;;33.85;;
60076;SDS011;45950;45.208;20.374;2023-01-05T07:37:08;74.90;;;40.33;;
60076;SDS011;45950;45.208;20.374;2023-01-05T07:39:38;87.53;;;43.22;;
60076;SDS011;45950;45.208;20.374;2023-01-05T07:42:11;59.67;;;31.35;;
60076;SDS011;45950;45.208;20.374;2023-01-05T07:44:41;53.97;;;29.42;;
60076;SDS011;45950;45.208;20.374;2023-01-05T07:47:10;54.63;;;28.48;;
60076;SDS011;45950;45.208;20.374;2023-01-05T07:49:39;51.65;;;27.70;;
60076;SDS011;45950;45.208;20.374;2023-01-05T07:52:09;52.10;;;28.35;;
60076;SDS011;45950;45.208;20.374;2023-01-05T07:54:39;52.08;;;27.15;;
60076;SDS011;45950;45.208;20.374;2023-01-05T07:57:09;55.30;;;30.25;;
60076;SDS011;45950;45.208;20.374;2023-01-05T07:59:36;53.20;;;28.73;;
60076;SDS011;45950;45.208;20.374;2023-01-05T08:02:07;53.45;;;29.02;;
60076;SDS011;45950;45.208;20.374;2023-01-05T08:07:35;55.97;;;30.08;;
60076;SDS011;45950;45.208;20.374;2023-01-05T08:10:03;54.88;;;29.65;;
60076;SDS011;45950;45.208;20.374;2023-01-05T08:12:47;56.60;;;27.88;;
60076;SDS011;45950;45.208;20.374;2023-01-05T08:15:31;51.38;;;28.40;;
60076;SDS011;45950;45.208;20.374;2023-01-05T08:17:59;60.80;;;32.08;;
60076;SDS011;45950;45.208;20.374;2023-01-05T08:20:27;60.42;;;31.13;;
60076;SDS011;45950;45.208;20.374;2023-01-05T08:22:59;55.42;;;28.33;;
60076;SDS011;45950;45.208;20.374;2023-01-05T08:25:27;55.10;;;31.85;;
60076;SDS011;45950;45.208;20.374;2023-01-05T08:27:55;54.30;;;30.90;;
60076;SDS011;45950;45.208;20.374;2023-01-05T08:30:23;52.97;;;29.77;;
60076;SDS011;45950;45.208;20.374;2023-01-05T08:32:51;52.85;;;30.95;;
60076;SDS011;45950;45.208;20.374;2023-01-05T08:35:21;50.85;;;28.75;;
60076;SDS011;45950;45.208;20.374;2023-01-05T08:40:28;53.58;;;31.55;;
60076;SDS011;45950;45.208;20.374;2023-01-05T08:42:58;56.13;;;31.73;;
60076;SDS011;45950;45.208;20.374;2023-01-05T08:45:31;57.85;;;35.70;;
60076;SDS011;45950;45.208;20.374;2023-01-05T08:48:00;61.08;;;34.75;;
60076;SDS011;45950;45.208;20.374;2023-01-05T08:50:29;55.78;;;32.58;;
60076;SDS011;45950;45.208;20.374;2023-01-05T09:03:38;48.20;;;30.70;;
60076;SDS011;45950;45.208;20.374;2023-01-05T09:06:07;45.03;;;28.85;;
60076;SDS011;45950;45.208;20.374;2023-01-05T09:08:55;48.28;;;29.17;;
60076;SDS011;45950;45.208;20.374;2023-01-05T09:11:24;44.47;;;28.20;;
60076;SDS011;45950;45.208;20.374;2023-01-05T09:13:53;51.10;;;29.33;;
60076;SDS011;45950;45.208;20.374;2023-01-05T09:16:23;39.13;;;26.05;;
60076;SDS011;45950;45.208;20.374;2023-01-05T09:18:55;47.30;;;27.98;;
60076;SDS011;45950;45.208;20.374;2023-01-05T09:24:26;45.55;;;27.63;;
60076;SDS011;45950;45.208;20.374;2023-01-05T09:26:56;40.72;;;26.60;;
60076;SDS011;45950;45.208;20.374;2023-01-05T09:29:25;50.33;;;30.13;;
60076;SDS011;45950;45.208;20.374;2023-01-05T09:31:53;47.17;;;30.33;;
60076;SDS011;45950;45.208;20.374;2023-01-05T09:34:21;42.42;;;27.48;;
60076;SDS011;45950;45.208;20.374;2023-01-05T09:36:49;49.03;;;31.17;;
60076;SDS011;45950;45.208;20.374;2023-01-05T09:39:16;45.72;;;30.52;;
60076;SDS011;45950;45.208;20.374;2023-01-05T09:41:45;45.03;;;28.00;;
60076;SDS011;45950;45.208;20.374;2023-01-05T09:44:14;45.10;;;27.92;;
60076;SDS011;45950;45.208;20.374;2023-01-05T09:46:47;46.33;;;27.23;;
60076;SDS011;45950;45.208;20.374;2023-01-05T09:49:17;48.33;;;29.95;;
60076;SDS011;45950;45.208;20.374;2023-01-05T09:51:47;39.20;;;25.65;;
60076;SDS011;45950;45.208;20.374;2023-01-05T09:54:16;45.70;;;27.35;;
60076;SDS011;45950;45.208;20.374;2023-01-05T09:56:44;43.95;;;28.00;;
60076;SDS011;45950;45.208;20.374;2023-01-05T09:59:13;39.95;;;25.70;;
60076;SDS011;45950;45.208;20.374;2023-01-05T10:01:43;43.30;;;27.38;;
60076;SDS011;45950;45.208;20.374;2023-01-05T10:04:14;40.03;;;25.40;;
60076;SDS011;45950;45.208;20.374;2023-01-05T10:06:43;36.58;;;24.27;;
60076;SDS011;45950;45.208;20.374;2023-01-05T10:09:15;31.25;;;21.90;;
60076;SDS011;45950;45.208;20.374;2023-01-05T10:11:45;37.45;;;25.05;;
60076;SDS011;45950;45.208;20.374;2023-01-05T10:14:31;39.80;;;25.38;;
60076;SDS011;45950;45.208;20.374;2023-01-05T10:17:01;38.35;;;23.08;;
60076;SDS011;45950;45.208;20.374;2023-01-05T10:19:28;34.05;;;23.80;;
60076;SDS011;45950;45.208;20.374;2023-01-05T10:21:57;33.90;;;23.02;;
60076;SDS011;45950;45.208;20.374;2023-01-05T10:24:32;31.63;;;21.40;;
60076;SDS011;45950;45.208;20.374;2023-01-05T10:30:09;31.17;;;21.10;;
60076;SDS011;45950;45.208;20.374;2023-01-05T10:32:44;29.92;;;20.65;;
60076;SDS011;45950;45.208;20.374;2023-01-05T10:35:20;32.85;;;21.00;;
60076;SDS011;45950;45.208;20.374;2023-01-05T10:37:56;32.30;;;20.67;;
60076;SDS011;45950;45.208;20.374;2023-01-05T10:40:32;26.10;;;17.50;;
60076;SDS011;45950;45.208;20.374;2023-01-05T10:43:08;25.40;;;17.05;;
60076;SDS011;45950;45.208;20.374;2023-01-05T10:45:39;27.73;;;18.67;;
60076;SDS011;45950;45.208;20.374;2023-01-05T10:48:10;27.58;;;18.92;;
60076;SDS011;45950;45.208;20.374;2023-01-05T10:53:27;27.05;;;18.48;;
60076;SDS011;45950;45.208;20.374;2023-01-05T10:56:00;26.80;;;17.50;;
60076;SDS011;45950;45.208;20.374;2023-01-05T10:58:29;27.45;;;18.80;;
60076;SDS011;45950;45.208;20.374;2023-01-05T11:00:59;29.58;;;19.23;;
60076;SDS011;45950;45.208;20.374;2023-01-05T11:03:34;26.60;;;18.58;;
60076;SDS011;45950;45.208;20.374;2023-01-05T11:06:17;26.63;;;18.98;;
60076;SDS011;45950;45.208;20.374;2023-01-05T11:08:44;29.33;;;19.40;;
60076;SDS011;45950;45.208;20.374;2023-01-05T11:25:27;24.70;;;17.63;;
60076;SDS011;45950;45.208;20.374;2023-01-05T11:30:56;29.02;;;20.70;;
60076;SDS011;45950;45.208;20.374;2023-01-05T11:36:17;26.20;;;17.92;;
60076;SDS011;45950;45.208;20.374;2023-01-05T11:38:55;25.23;;;18.08;;
60076;SDS011;45950;45.208;20.374;2023-01-05T11:41:27;28.52;;;18.85;;
60076;SDS011;45950;45.208;20.374;2023-01-05T12:08:12;61.47;;;35.40;;
60076;SDS011;45950;45.208;20.374;2023-01-05T14:12:31;27.63;;;17.20;;
60076;SDS011;45950;45.208;20.374;2023-01-05T14:20:41;15.38;;;9.52;;
60076;SDS011;45950;45.208;20.374;2023-01-05T14:26:01;9.20;;;5.40;;
60076;SDS011;45950;45.208;20.374;2023-01-05T14:53:10;20.50;;;11.48;;
60076;SDS011;45950;45.208;20.374;2023-01-05T14:56:13;9.23;;;6.18;;
60076;SDS011;45950;45.208;20.374;2023-01-05T15:09:25;10.02;;;7.15;;
60076;SDS011;45950;45.208;20.374;2023-01-05T15:12:19;12.93;;;9.57;;
60076;SDS011;45950;45.208;20.374;2023-01-05T15:15:34;15.27;;;9.32;;
60076;SDS011;45950;45.208;20.374;2023-01-05T15:23:52;22.92;;;12.80;;
60076;SDS011;45950;45.208;20.374;2023-01-05T15:26:28;22.98;;;15.27;;
60076;SDS011;45950;45.208;20.374;2023-01-05T15:29:10;16.33;;;9.82;;
60076;SDS011;45950;45.208;20.374;2023-01-05T15:31:43;20.02;;;12.50;;
60076;SDS011;45950;45.208;20.374;2023-01-05T15:34:17;33.00;;;16.70;;
60076;SDS011;45950;45.208;20.374;2023-01-05T15:36:47;18.77;;;12.98;;
60076;SDS011;45950;45.208;20.374;2023-01-05T15:39:21;49.97;;;25.33;;
60076;SDS011;45950;45.208;20.374;2023-01-05T15:41:49;48.13;;;25.45;;
60076;SDS011;45950;45.208;20.374;2023-01-05T15:44:16;41.55;;;22.83;;
60076;SDS011;45950;45.208;20.374;2023-01-05T15:46:43;29.10;;;17.80;;
60076;SDS011;45950;45.208;20.374;2023-01-05T15:52:18;63.33;;;42.55;;
60076;SDS011;45950;45.208;20.374;2023-01-05T15:57:36;28.27;;;18.17;;
60076;SDS011;45950;45.208;20.374;2023-01-05T16:00:13;22.23;;;16.55;;
60076;SDS011;45950;45.208;20.374;2023-01-05T16:02:40;20.38;;;14.25;;
60076;SDS011;45950;45.208;20.374;2023-01-05T16:05:10;19.02;;;12.73;;
60076;SDS011;45950;45.208;20.374;2023-01-05T16:07:39;16.58;;;11.25;;
60076;SDS011;45950;45.208;20.374;2023-01-05T16:10:10;20.20;;;13.18;;
60076;SDS011;45950;45.208;20.374;2023-01-05T16:12:42;16.40;;;11.30;;
60076;SDS011;45950;45.208;20.374;2023-01-05T16:15:10;16.02;;;10.13;;
60076;SDS011;45950;45.208;20.374;2023-01-05T16:17:38;21.95;;;16.23;;
60076;SDS011;45950;45.208;20.374;2023-01-05T16:20:05;20.25;;;15.35;;
60076;SDS011;45950;45.208;20.374;2023-01-05T16:22:33;24.05;;;15.38;;
60076;SDS011;45950;45.208;20.374;2023-01-05T16:25:05;22.25;;;14.52;;
60076;SDS011;45950;45.208;20.374;2023-01-05T16:30:27;21.50;;;15.77;;
60076;SDS011;45950;45.208;20.374;2023-01-05T16:32:56;20.80;;;14.48;;
60076;SDS011;45950;45.208;20.374;2023-01-05T16:35:31;23.23;;;15.88;;
60076;SDS011;45950;45.208;20.374;2023-01-05T16:38:03;23.60;;;15.95;;
60076;SDS011;45950;45.208;20.374;2023-01-05T16:40:31;21.98;;;14.60;;
60076;SDS011;45950;45.208;20.374;2023-01-05T16:42:58;21.33;;;15.65;;
60076;SDS011;45950;45.208;20.374;2023-01-05T16:45:31;29.65;;;19.25;;
60076;SDS011;45950;45.208;20.374;2023-01-05T16:48:00;24.45;;;16.90;;
60076;SDS011;45950;45.208;20.374;2023-01-05T16:53:31;23.52;;;15.70;;
60076;SDS011;45950;45.208;20.374;2023-01-05T16:55:59;22.65;;;14.98;;
60076;SDS011;45950;45.208;20.374;2023-01-05T16:58:43;26.13;;;16.35;;
60076;SDS011;45950;45.208;20.374;2023-01-05T17:04:30;23.67;;;16.10;;
60076;SDS011;45950;45.208;20.374;2023-01-05T17:06:58;27.88;;;19.00;;
60076;SDS011;45950;45.208;20.374;2023-01-05T17:09:27;25.48;;;17.08;;
60076;SDS011;45950;45.208;20.374;2023-01-05T17:11:55;23.90;;;18.25;;
60076;SDS011;45950;45.208;20.374;2023-01-05T17:14:22;29.52;;;22.02;;
60076;SDS011;45950;45.208;20.374;2023-01-05T17:16:49;30.25;;;19.90;;
60076;SDS011;45950;45.208;20.374;2023-01-05T17:19:18;39.08;;;23.15;;
60076;SDS011;45950;45.208;20.374;2023-01-05T17:21:49;31.25;;;22.75;;
60076;SDS011;45950;45.208;20.374;2023-01-05T17:24:19;27.70;;;18.38;;
60076;SDS011;45950;45.208;20.374;2023-01-05T17:26:46;32.20;;;22.63;;
60076;SDS011;45950;45.208;20.374;2023-01-05T17:29:16;26.13;;;16.92;;
60076;SDS011;45950;45.208;20.374;2023-01-05T17:31:43;33.63;;;22.15;;
60076;SDS011;45950;45.208;20.374;2023-01-05T17:34:10;31.60;;;21.40;;
60076;SDS011;45950;45.208;20.374;2023-01-05T17:36:37;32.03;;;20.13;;
60076;SDS011;45950;45.208;20.374;2023-01-05T17:39:05;30.75;;;20.63;;
60076;SDS011;45950;45.208;20.374;2023-01-05T17:41:32;43.40;;;27.77;;
60076;SDS011;45950;45.208;20.374;2023-01-05T17:43:59;34.55;;;24.13;;
60076;SDS011;45950;45.208;20.374;2023-01-05T17:46:28;32.17;;;22.08;;
60076;SDS011;45950;45.208;20.374;2023-01-05T17:48:55;28.48;;;18.67;;
60076;SDS011;45950;45.208;20.374;2023-01-05T17:51:22;35.85;;;22.98;;
60076;SDS011;45950;45.208;20.374;2023-01-05T17:53:52;35.72;;;23.95;;
60076;SDS011;45950;45.208;20.374;2023-01-05T17:56:22;36.58;;;23.40;;
60076;SDS011;45950;45.208;20.374;2023-01-05T17:58:49;35.90;;;23.58;;
60076;SDS011;45950;45.208;20.374;2023-01-05T18:01:16;44.88;;;27.15;;
60076;SDS011;45950;45.208;20.374;2023-01-05T18:03:42;34.88;;;23.55;;
60076;SDS011;45950;45.208;20.374;2023-01-05T18:06:09;35.08;;;23.30;;
60076;SDS011;45950;45.208;20.374;2023-01-05T18:08:36;34.20;;;24.33;;
60076;SDS011;45950;45.208;20.374;2023-01-05T18:11:04;30.20;;;20.60;;
60076;SDS011;45950;45.208;20.374;2023-01-05T18:13:33;30.80;;;21.00;;
60076;SDS011;45950;45.208;20.374;2023-01-05T18:16:03;36.88;;;22.67;;
60076;SDS011;45950;45.208;20.374;2023-01-05T18:18:31;29.55;;;20.40;;
60076;SDS011;45950;45.208;20.374;2023-01-05T18:21:01;29.17;;;20.00;;
60076;SDS011;45950;45.208;20.374;2023-01-05T18:23:29;30.50;;;19.45;;
60076;SDS011;45950;45.208;20.374;2023-01-05T18:26:02;26.13;;;16.42;;
60076;SDS011;45950;45.208;20.374;2023-01-05T18:28:29;29.42;;;19.48;;
60076;SDS011;45950;45.208;20.374;2023-01-05T18:31:09;25.10;;;16.38;;
60076;SDS011;45950;45.208;20.374;2023-01-05T18:36:39;22.10;;;14.00;;
60076;SDS011;45950;45.208;20.374;2023-01-05T18:39:06;22.00;;;13.60;;
60076;SDS011;45950;45.208;20.374;2023-01-05T18:41:33;19.90;;;12.68;;
60076;SDS011;45950;45.208;20.374;2023-01-05T18:47:05;18.35;;;11.75;;
60076;SDS011;45950;45.208;20.374;2023-01-05T18:49:31;18.42;;;11.68;;
60076;SDS011;45950;45.208;20.374;2023-01-05T18:52:01;15.48;;;10.82;;
60076;SDS011;45950;45.208;20.374;2023-01-05T18:54:28;17.52;;;10.85;;
60076;SDS011;45950;45.208;20.374;2023-01-05T18:56:56;16.85;;;11.82;;
60076;SDS011;45950;45.208;20.374;2023-01-05T18:59:23;18.15;;;12.25;;
60076;SDS011;45950;45.208;20.374;2023-01-05T19:01:53;15.95;;;10.50;;
60076;SDS011;45950;45.208;20.374;2023-01-05T19:04:22;14.85;;;9.70;;
60076;SDS011;45950;45.208;20.374;2023-01-05T19:06:49;17.55;;;11.35;;
60076;SDS011;45950;45.208;20.374;2023-01-05T19:09:19;17.30;;;9.55;;
60076;SDS011;45950;45.208;20.374;2023-01-05T19:11:46;16.73;;;10.43;;
60076;SDS011;45950;45.208;20.374;2023-01-05T19:14:15;13.27;;;10.20;;
60076;SDS011;45950;45.208;20.374;2023-01-05T19:16:44;14.52;;;9.77;;
60076;SDS011;45950;45.208;20.374;2023-01-05T19:19:13;17.42;;;10.40;;
60076;SDS011;45950;45.208;20.374;2023-01-05T19:21:43;12.38;;;8.40;;
60076;SDS011;45950;45.208;20.374;2023-01-05T19:24:12;14.02;;;9.48;;
60076;SDS011;45950;45.208;20.374;2023-01-05T19:26:39;15.43;;;9.73;;
60076;SDS011;45950;45.208;20.374;2023-01-05T19:29:09;14.43;;;8.75;;
60076;SDS011;45950;45.208;20.374;2023-01-05T19:31:39;11.50;;;7.47;;
60076;SDS011;45950;45.208;20.374;2023-01-05T19:37:10;15.73;;;8.52;;